BAW32 VHHH-EGLL
Flight info
| Callsign | BAW32 |
|---|---|
| Flight time | N/A |
| Altitude | 34100 |
| Route | BEKOL1C BEKOL A461 SHL W22 TEPID W24 OSNOV G586 QP B330 ELKAL W179 IGNAK/K0928S1010 W179 WFX/K0917S1040 W179 OMBON W195 VIDEK/K0922S1010 W195 LAXAL/K0913S1040 W195 IDOPA W197 ANDIM B215 IBANO G470 AKLAS W192 FKG A368 SARIN/K0904F340 N161 GASBI/N0493F340 N161 LEYLA T916 MATAL DCT REBLO UR317 TBN UM11 CRM/N0494F360 UL746 ODERO DCT OPT DCT TEGRI DCT GAZDA DCT ARSIN DCT PEROL DCT RENKA DCT INBED DCT BOMBI DCT DENUT L608 LOGAN LOGAN2H |
| Aircraft | A35K/H-SDE2E3GHIJ3J4J5LM1ORWXY/LB1D1 |
Departure
| Time | N/A |
|---|---|
| Airport | Hong Kong International Airport (VHHH) |
Arrival
| Time | 2026-05-06 08:50 |
|---|---|
| Airport | London Heathrow Airport (EGLL) |
| Time | Latitude | Longitude | Altitude | Speed | Heading |
|---|---|---|---|---|---|
| 2026-05-06 04:11 | 40.78228 | 45.20423 | 34047 ft | 479 kts | 268° |
| 2026-05-06 04:11 | 40.78624 | 45.11647 | 34055 ft | 479 kts | 268° |
| 2026-05-06 04:12 | 40.79009 | 45.02864 | 34078 ft | 479 kts | 269° |
| 2026-05-06 04:12 | 40.79385 | 44.94073 | 34073 ft | 481 kts | 269° |
| 2026-05-06 04:13 | 40.79749 | 44.85275 | 33960 ft | 480 kts | 269° |
| 2026-05-06 04:13 | 40.80107 | 44.76519 | 33972 ft | 480 kts | 269° |
| 2026-05-06 04:14 | 40.80462 | 44.67710 | 33964 ft | 480 kts | 269° |
| 2026-05-06 04:14 | 40.80812 | 44.58896 | 33987 ft | 481 kts | 269° |
| 2026-05-06 04:15 | 40.81158 | 44.50067 | 33969 ft | 482 kts | 269° |
| 2026-05-06 04:15 | 40.81495 | 44.41211 | 33981 ft | 482 kts | 269° |
| 2026-05-06 04:16 | 40.81822 | 44.32372 | 33977 ft | 481 kts | 269° |
| 2026-05-06 04:16 | 40.82145 | 44.23552 | 33982 ft | 480 kts | 269° |
| 2026-05-06 04:17 | 40.82458 | 44.14778 | 33990 ft | 481 kts | 270° |
| 2026-05-06 04:17 | 40.82768 | 44.05922 | 33984 ft | 483 kts | 269° |
| 2026-05-06 04:18 | 40.83073 | 43.97045 | 33983 ft | 483 kts | 269° |
| 2026-05-06 04:18 | 40.83320 | 43.89682 | 33992 ft | 483 kts | 270° |
| 2026-05-06 04:19 | 40.83611 | 43.80827 | 33987 ft | 482 kts | 270° |
| 2026-05-06 04:19 | 40.83895 | 43.71979 | 34003 ft | 483 kts | 270° |
| 2026-05-06 04:20 | 40.84221 | 43.63086 | 33988 ft | 487 kts | 271° |
| 2026-05-06 04:20 | 40.84745 | 43.54149 | 33992 ft | 488 kts | 272° |
| 2026-05-06 04:21 | 40.85289 | 43.45220 | 33982 ft | 488 kts | 272° |
| 2026-05-06 04:21 | 40.85795 | 43.36291 | 33981 ft | 487 kts | 271° |
| 2026-05-06 04:22 | 40.86272 | 43.27441 | 33995 ft | 486 kts | 271° |
| 2026-05-06 04:23 | 40.86973 | 43.14085 | 34000 ft | 486 kts | 271° |
| 2026-05-06 04:23 | 40.87433 | 43.05176 | 33997 ft | 485 kts | 271° |
| 2026-05-06 04:24 | 40.87887 | 42.96270 | 33997 ft | 485 kts | 271° |
| 2026-05-06 04:24 | 40.88333 | 42.87367 | 34004 ft | 487 kts | 271° |
| 2026-05-06 04:25 | 40.88775 | 42.78414 | 34006 ft | 488 kts | 271° |
| 2026-05-06 04:25 | 40.89212 | 42.69446 | 34015 ft | 488 kts | 271° |
| 2026-05-06 04:26 | 40.89642 | 42.60491 | 34032 ft | 488 kts | 271° |
| 2026-05-06 04:26 | 40.90061 | 42.51584 | 34022 ft | 488 kts | 271° |
| 2026-05-06 04:27 | 40.90475 | 42.42616 | 34035 ft | 489 kts | 271° |
| 2026-05-06 04:27 | 40.90885 | 42.33623 | 34035 ft | 489 kts | 271° |
| 2026-05-06 04:28 | 40.91288 | 42.24636 | 34035 ft | 488 kts | 271° |
| 2026-05-06 04:28 | 40.91682 | 42.15695 | 34037 ft | 487 kts | 271° |
| 2026-05-06 04:29 | 40.92068 | 42.06745 | 34043 ft | 488 kts | 271° |
| 2026-05-06 04:29 | 40.92447 | 41.97822 | 34043 ft | 490 kts | 271° |
| 2026-05-06 04:30 | 40.92821 | 41.88821 | 34046 ft | 490 kts | 271° |
| 2026-05-06 04:30 | 40.93188 | 41.79812 | 34043 ft | 490 kts | 271° |
| 2026-05-06 04:31 | 40.93549 | 41.70803 | 34046 ft | 489 kts | 271° |
| 2026-05-06 04:31 | 40.93901 | 41.61876 | 34041 ft | 490 kts | 271° |
| 2026-05-06 04:32 | 40.94248 | 41.52864 | 34049 ft | 491 kts | 271° |
| 2026-05-06 04:32 | 40.94589 | 41.43830 | 34052 ft | 491 kts | 271° |
| 2026-05-06 04:33 | 40.94920 | 41.34823 | 34054 ft | 490 kts | 271° |
| 2026-05-06 04:33 | 40.95247 | 41.25799 | 34076 ft | 491 kts | 271° |
| 2026-05-06 04:34 | 40.95568 | 41.16760 | 34063 ft | 491 kts | 271° |
| 2026-05-06 04:34 | 40.95877 | 41.07815 | 34078 ft | 488 kts | 271° |
| 2026-05-06 04:35 | 40.96181 | 40.98850 | 34073 ft | 488 kts | 271° |
| 2026-05-06 04:35 | 40.96478 | 40.89875 | 34081 ft | 488 kts | 271° |
| 2026-05-06 04:36 | 40.96773 | 40.80896 | 34084 ft | 489 kts | 271° |
| 2026-05-06 04:36 | 40.97053 | 40.71892 | 34087 ft | 490 kts | 271° |
| 2026-05-06 04:37 | 40.97327 | 40.62875 | 34086 ft | 490 kts | 271° |
| 2026-05-06 04:37 | 40.97595 | 40.53860 | 34094 ft | 490 kts | 271° |
| 2026-05-06 04:38 | 40.97858 | 40.44845 | 34101 ft | 490 kts | 271° |
| 2026-05-06 04:38 | 40.98113 | 40.35842 | 34098 ft | 491 kts | 271° |
| 2026-05-06 04:39 | 40.98360 | 40.26852 | 34092 ft | 491 kts | 271° |
| 2026-05-06 04:39 | 40.98603 | 40.17811 | 34100 ft | 491 kts | 271° |
| 2026-05-06 04:40 | 40.98836 | 40.08781 | 34105 ft | 490 kts | 271° |
| 2026-05-06 04:40 | 40.99064 | 39.99780 | 34104 ft | 489 kts | 270° |
| 2026-05-06 04:41 | 40.99277 | 39.90751 | 34102 ft | 490 kts | 270° |
| 2026-05-06 04:41 | 40.99490 | 39.81734 | 34101 ft | 490 kts | 271° |
| 2026-05-06 04:42 | 41.00178 | 39.72818 | 34101 ft | 491 kts | 276° |
| 2026-05-06 04:42 | 41.01027 | 39.63828 | 34102 ft | 491 kts | 276° |
| 2026-05-06 04:43 | 41.01894 | 39.54860 | 34103 ft | 492 kts | 276° |
| 2026-05-06 04:43 | 41.02754 | 39.45846 | 34104 ft | 492 kts | 276° |
| 2026-05-06 04:44 | 41.03597 | 39.36855 | 34104 ft | 491 kts | 276° |
| 2026-05-06 04:44 | 41.04430 | 39.27873 | 34103 ft | 491 kts | 276° |
| 2026-05-06 04:45 | 41.05251 | 39.18944 | 34105 ft | 491 kts | 276° |
| 2026-05-06 04:45 | 41.06075 | 39.09963 | 34108 ft | 491 kts | 276° |
| 2026-05-06 04:46 | 41.06907 | 39.00974 | 34108 ft | 491 kts | 276° |
| 2026-05-06 04:46 | 41.07733 | 38.91984 | 34108 ft | 491 kts | 276° |
| 2026-05-06 04:47 | 41.08551 | 38.82982 | 34103 ft | 492 kts | 276° |
| 2026-05-06 04:47 | 41.09362 | 38.73986 | 34102 ft | 491 kts | 276° |
| 2026-05-06 04:48 | 41.10162 | 38.65010 | 34095 ft | 491 kts | 276° |
| 2026-05-06 04:48 | 41.10931 | 38.56069 | 34094 ft | 491 kts | 275° |
| 2026-05-06 04:49 | 41.11679 | 38.47070 | 34097 ft | 491 kts | 275° |
| 2026-05-06 04:49 | 41.12423 | 38.38045 | 34092 ft | 493 kts | 275° |
| 2026-05-06 04:50 | 41.13166 | 38.29000 | 34094 ft | 493 kts | 275° |
| 2026-05-06 04:50 | 41.13907 | 38.19960 | 34096 ft | 493 kts | 275° |
| 2026-05-06 04:51 | 41.14646 | 38.10903 | 34099 ft | 493 kts | 275° |
| 2026-05-06 04:51 | 41.15378 | 38.01845 | 34104 ft | 494 kts | 275° |
| 2026-05-06 04:52 | 41.16104 | 37.92765 | 34106 ft | 494 kts | 275° |
| 2026-05-06 04:52 | 41.16836 | 37.83688 | 34108 ft | 495 kts | 276° |
| 2026-05-06 04:53 | 41.17611 | 37.74611 | 34111 ft | 495 kts | 276° |
| 2026-05-06 04:53 | 41.18381 | 37.65595 | 34099 ft | 494 kts | 276° |
| 2026-05-06 04:54 | 41.19087 | 37.56514 | 34102 ft | 494 kts | 274° |
| 2026-05-06 04:54 | 41.19610 | 37.47411 | 34099 ft | 494 kts | 274° |
| 2026-05-06 04:55 | 41.20261 | 37.38323 | 34213 ft | 492 kts | 275° |
| 2026-05-06 04:55 | 41.20601 | 37.33805 | 34550 ft | 490 kts | 275° |
| 2026-05-06 04:55 | 41.20939 | 37.29318 | 34877 ft | 488 kts | 275° |
| 2026-05-06 04:55 | 41.21274 | 37.24833 | 35144 ft | 487 kts | 275° |
| 2026-05-06 04:56 | 41.21604 | 37.20364 | 35388 ft | 487 kts | 275° |
| 2026-05-06 04:56 | 41.21945 | 37.15898 | 35618 ft | 486 kts | 275° |
| 2026-05-06 04:56 | 41.22296 | 37.11422 | 35835 ft | 486 kts | 276° |
| 2026-05-06 04:56 | 41.22643 | 37.07001 | 36030 ft | 487 kts | 276° |
| 2026-05-06 04:57 | 41.22994 | 37.02511 | 36094 ft | 491 kts | 275° |
| 2026-05-06 04:57 | 41.23693 | 36.93429 | 36103 ft | 494 kts | 276° |
| 2026-05-06 04:58 | 41.24381 | 36.84346 | 36112 ft | 494 kts | 275° |
| 2026-05-06 04:58 | 41.25061 | 36.75244 | 36122 ft | 494 kts | 275° |
| 2026-05-06 04:59 | 41.25732 | 36.66181 | 36130 ft | 493 kts | 275° |
| 2026-05-06 04:59 | 41.26444 | 36.57179 | 36128 ft | 492 kts | 279° |
| 2026-05-06 05:00 | 41.28207 | 36.48401 | 36086 ft | 492 kts | 288° |
| 2026-05-06 05:00 | 41.30374 | 36.39753 | 36085 ft | 492 kts | 289° |
| 2026-05-06 05:01 | 41.32593 | 36.31140 | 36084 ft | 492 kts | 289° |
| 2026-05-06 05:01 | 41.34801 | 36.22500 | 36083 ft | 493 kts | 289° |
| 2026-05-06 05:02 | 41.36992 | 36.13836 | 36087 ft | 493 kts | 289° |
| 2026-05-06 05:02 | 41.39156 | 36.05227 | 36085 ft | 493 kts | 289° |
| 2026-05-06 05:03 | 41.41327 | 35.96556 | 36075 ft | 494 kts | 289° |
| 2026-05-06 05:03 | 41.43495 | 35.87869 | 36077 ft | 494 kts | 289° |
| 2026-05-06 05:04 | 41.45656 | 35.79179 | 36076 ft | 494 kts | 289° |
| 2026-05-06 05:04 | 41.47812 | 35.70481 | 36077 ft | 494 kts | 289° |
| 2026-05-06 05:05 | 41.49600 | 35.63242 | 36082 ft | 494 kts | 289° |
| 2026-05-06 05:05 | 41.51745 | 35.54526 | 36084 ft | 494 kts | 289° |
| 2026-05-06 05:06 | 41.53872 | 35.45850 | 36082 ft | 494 kts | 288° |
| 2026-05-06 05:06 | 41.56006 | 35.37113 | 36085 ft | 494 kts | 289° |
| 2026-05-06 05:07 | 41.58131 | 35.28376 | 36080 ft | 494 kts | 289° |
| 2026-05-06 05:07 | 41.60246 | 35.19654 | 36088 ft | 493 kts | 289° |
| 2026-05-06 05:08 | 41.62351 | 35.10940 | 36096 ft | 493 kts | 289° |
| 2026-05-06 05:08 | 41.64452 | 35.02209 | 36104 ft | 493 kts | 289° |
| 2026-05-06 05:09 | 41.66541 | 34.93492 | 36088 ft | 493 kts | 289° |
| 2026-05-06 05:09 | 41.68629 | 34.84752 | 36104 ft | 493 kts | 289° |
| 2026-05-06 05:10 | 41.70695 | 34.76069 | 36099 ft | 493 kts | 289° |
| 2026-05-06 05:10 | 41.72767 | 34.67323 | 36089 ft | 492 kts | 289° |
| 2026-05-06 05:11 | 41.74835 | 34.58567 | 36085 ft | 492 kts | 289° |
| 2026-05-06 05:11 | 41.76892 | 34.49819 | 36084 ft | 492 kts | 289° |
| 2026-05-06 05:12 | 41.78939 | 34.41070 | 36088 ft | 492 kts | 289° |
| 2026-05-06 05:12 | 41.80980 | 34.32319 | 36095 ft | 492 kts | 289° |
| 2026-05-06 05:13 | 41.83004 | 34.23616 | 36097 ft | 492 kts | 289° |
| 2026-05-06 05:13 | 41.85039 | 34.14824 | 36101 ft | 492 kts | 289° |
| 2026-05-06 05:14 | 41.87057 | 34.06070 | 36096 ft | 491 kts | 289° |
| 2026-05-06 05:14 | 41.89068 | 33.97314 | 36098 ft | 490 kts | 289° |
| 2026-05-06 05:15 | 41.91074 | 33.88548 | 36107 ft | 490 kts | 289° |
| 2026-05-06 05:15 | 41.93057 | 33.79844 | 36091 ft | 490 kts | 290° |
| 2026-05-06 05:16 | 41.95040 | 33.71102 | 36099 ft | 488 kts | 290° |
| 2026-05-06 05:16 | 41.96885 | 33.62307 | 36105 ft | 490 kts | 287° |
| 2026-05-06 05:17 | 41.98534 | 33.53427 | 36099 ft | 490 kts | 287° |
| 2026-05-06 05:17 | 42.00181 | 33.44561 | 36097 ft | 488 kts | 287° |
| 2026-05-06 05:18 | 42.01847 | 33.35751 | 36098 ft | 484 kts | 287° |
| 2026-05-06 05:18 | 42.03513 | 33.26996 | 36103 ft | 483 kts | 287° |
| 2026-05-06 05:19 | 42.05164 | 33.18293 | 36102 ft | 483 kts | 287° |
| 2026-05-06 05:19 | 42.06818 | 33.09525 | 36099 ft | 482 kts | 287° |
| 2026-05-06 05:20 | 42.08514 | 33.00798 | 36100 ft | 481 kts | 288° |
| 2026-05-06 05:20 | 42.10315 | 32.92124 | 36099 ft | 481 kts | 289° |
| 2026-05-06 05:21 | 42.12117 | 32.83428 | 36080 ft | 481 kts | 289° |
| 2026-05-06 05:21 | 42.13889 | 32.74738 | 36097 ft | 480 kts | 288° |
| 2026-05-06 05:22 | 42.15633 | 32.66101 | 36097 ft | 480 kts | 288° |
| 2026-05-06 05:22 | 42.17382 | 32.57416 | 36094 ft | 480 kts | 288° |
| 2026-05-06 05:23 | 42.19122 | 32.48713 | 36096 ft | 480 kts | 288° |
| 2026-05-06 05:23 | 42.21710 | 32.35664 | 36098 ft | 480 kts | 288° |
| 2026-05-06 05:24 | 42.23433 | 32.26943 | 36089 ft | 480 kts | 288° |
| 2026-05-06 05:24 | 42.25152 | 32.18220 | 36087 ft | 480 kts | 288° |
| 2026-05-06 05:25 | 42.26845 | 32.09571 | 36096 ft | 480 kts | 288° |
| 2026-05-06 05:25 | 42.28547 | 32.00853 | 36095 ft | 479 kts | 288° |
| 2026-05-06 05:26 | 42.30242 | 31.92132 | 36093 ft | 479 kts | 288° |
| 2026-05-06 05:26 | 42.31931 | 31.83415 | 36086 ft | 479 kts | 288° |
| 2026-05-06 05:27 | 42.33614 | 31.74698 | 36098 ft | 478 kts | 288° |
| 2026-05-06 05:27 | 42.35274 | 31.66057 | 36089 ft | 477 kts | 288° |
| 2026-05-06 05:28 | 42.36939 | 31.57354 | 36095 ft | 477 kts | 288° |
| 2026-05-06 05:28 | 42.38593 | 31.48680 | 36093 ft | 476 kts | 288° |
| 2026-05-06 05:29 | 42.39416 | 31.44347 | 36300 ft | 474 kts | 288° |
| 2026-05-06 05:29 | 42.40229 | 31.40051 | 36622 ft | 471 kts | 288° |
| 2026-05-06 05:29 | 42.41041 | 31.35753 | 36880 ft | 470 kts | 288° |
| 2026-05-06 05:29 | 42.41849 | 31.31461 | 37092 ft | 470 kts | 288° |
| 2026-05-06 05:30 | 42.42646 | 31.27228 | 37280 ft | 470 kts | 287° |
| 2026-05-06 05:30 | 42.43453 | 31.22931 | 37463 ft | 470 kts | 287° |
| 2026-05-06 05:30 | 42.44257 | 31.18637 | 37607 ft | 470 kts | 287° |
| 2026-05-06 05:30 | 42.45060 | 31.14340 | 37808 ft | 470 kts | 287° |
| 2026-05-06 05:31 | 42.45861 | 31.10048 | 37973 ft | 470 kts | 287° |
| 2026-05-06 05:31 | 42.46664 | 31.05754 | 38087 ft | 471 kts | 287° |
| 2026-05-06 05:31 | 42.48259 | 30.97141 | 38095 ft | 477 kts | 287° |
| 2026-05-06 05:32 | 42.49861 | 30.88421 | 38096 ft | 476 kts | 287° |
| 2026-05-06 05:32 | 42.51455 | 30.79716 | 38097 ft | 476 kts | 287° |
| 2026-05-06 05:33 | 42.53048 | 30.70986 | 38094 ft | 476 kts | 287° |
| 2026-05-06 05:33 | 42.54632 | 30.62270 | 38095 ft | 476 kts | 287° |
| 2026-05-06 05:34 | 42.56209 | 30.53548 | 38085 ft | 476 kts | 286° |
| 2026-05-06 05:34 | 42.57770 | 30.44880 | 38087 ft | 476 kts | 286° |
| 2026-05-06 05:35 | 42.59336 | 30.36137 | 38094 ft | 476 kts | 286° |
| 2026-05-06 05:35 | 42.61274 | 30.27595 | 38089 ft | 472 kts | 297° |
| 2026-05-06 05:36 | 42.64679 | 30.20056 | 38100 ft | 467 kts | 308° |
| 2026-05-06 05:36 | 42.68605 | 30.13017 | 38105 ft | 468 kts | 309° |
| 2026-05-06 05:37 | 42.72609 | 30.06035 | 38099 ft | 468 kts | 309° |
| 2026-05-06 05:37 | 42.76599 | 29.99034 | 38100 ft | 468 kts | 309° |
| 2026-05-06 05:38 | 42.80542 | 29.92052 | 38100 ft | 468 kts | 309° |
| 2026-05-06 05:38 | 42.84494 | 29.85018 | 38101 ft | 467 kts | 309° |
| 2026-05-06 05:39 | 42.88444 | 29.77972 | 38104 ft | 467 kts | 309° |
| 2026-05-06 05:39 | 42.92395 | 29.70909 | 38091 ft | 467 kts | 309° |
| 2026-05-06 05:40 | 42.96317 | 29.63882 | 38103 ft | 467 kts | 309° |
| 2026-05-06 05:40 | 43.00255 | 29.56811 | 38101 ft | 468 kts | 309° |
| 2026-05-06 05:41 | 43.04196 | 29.49716 | 38090 ft | 468 kts | 309° |
| 2026-05-06 05:41 | 43.08130 | 29.42617 | 38098 ft | 468 kts | 309° |
| 2026-05-06 05:42 | 43.12031 | 29.35562 | 38101 ft | 468 kts | 309° |
| 2026-05-06 05:42 | 43.15963 | 29.28432 | 38098 ft | 468 kts | 308° |
| 2026-05-06 05:43 | 43.19881 | 29.21311 | 38081 ft | 468 kts | 308° |
| 2026-05-06 05:43 | 43.23798 | 29.14177 | 38089 ft | 468 kts | 308° |
| 2026-05-06 05:44 | 43.27705 | 29.07041 | 38097 ft | 468 kts | 308° |
| 2026-05-06 05:44 | 43.31614 | 28.99883 | 38088 ft | 468 kts | 308° |
| 2026-05-06 05:45 | 43.35514 | 28.92727 | 38092 ft | 468 kts | 308° |
| 2026-05-06 05:45 | 43.39411 | 28.85557 | 38093 ft | 468 kts | 308° |
| 2026-05-06 05:46 | 43.43312 | 28.78363 | 38092 ft | 469 kts | 308° |
| 2026-05-06 05:46 | 43.47205 | 28.71167 | 38099 ft | 469 kts | 308° |
| 2026-05-06 05:47 | 43.51099 | 28.63951 | 38092 ft | 469 kts | 308° |
| 2026-05-06 05:47 | 43.54984 | 28.56732 | 38086 ft | 469 kts | 308° |
| 2026-05-06 05:48 | 43.58864 | 28.49506 | 38073 ft | 469 kts | 308° |
| 2026-05-06 05:48 | 43.62716 | 28.42315 | 38070 ft | 469 kts | 308° |
| 2026-05-06 05:49 | 43.66596 | 28.35055 | 38061 ft | 470 kts | 308° |
| 2026-05-06 05:49 | 43.70471 | 28.27784 | 38054 ft | 470 kts | 308° |
| 2026-05-06 05:50 | 43.74341 | 28.20506 | 38053 ft | 470 kts | 308° |
| 2026-05-06 05:50 | 43.78213 | 28.13205 | 38042 ft | 470 kts | 308° |
| 2026-05-06 05:51 | 43.82046 | 28.05958 | 38043 ft | 470 kts | 308° |
| 2026-05-06 05:51 | 43.85915 | 27.98628 | 38043 ft | 470 kts | 308° |
| 2026-05-06 05:52 | 43.89120 | 27.92541 | 38040 ft | 470 kts | 308° |
| 2026-05-06 05:52 | 43.92967 | 27.85216 | 38040 ft | 470 kts | 308° |
| 2026-05-06 05:53 | 43.96814 | 27.77874 | 38042 ft | 469 kts | 308° |
| 2026-05-06 05:53 | 44.00650 | 27.70535 | 38041 ft | 469 kts | 308° |
| 2026-05-06 05:54 | 44.04485 | 27.63179 | 38035 ft | 469 kts | 308° |
| 2026-05-06 05:54 | 44.08318 | 27.55810 | 38038 ft | 469 kts | 308° |
| 2026-05-06 05:55 | 44.12136 | 27.48450 | 38039 ft | 469 kts | 308° |
| 2026-05-06 05:55 | 44.15929 | 27.41120 | 38039 ft | 469 kts | 307° |
| 2026-05-06 05:56 | 44.19740 | 27.33733 | 38048 ft | 469 kts | 308° |
| 2026-05-06 05:56 | 44.23550 | 27.26334 | 38041 ft | 469 kts | 307° |
| 2026-05-06 05:57 | 44.27359 | 27.18917 | 38036 ft | 469 kts | 307° |
| 2026-05-06 05:57 | 44.29260 | 27.15207 | 38037 ft | 469 kts | 307° |
| 2026-05-06 05:58 | 44.32330 | 27.09205 | 38027 ft | 470 kts | 307° |
| 2026-05-06 05:58 | 44.36122 | 27.01777 | 38050 ft | 469 kts | 307° |
| 2026-05-06 05:59 | 44.39907 | 26.94344 | 38027 ft | 469 kts | 307° |
| 2026-05-06 05:59 | 44.43689 | 26.86897 | 38049 ft | 469 kts | 307° |
| 2026-05-06 06:00 | 44.47470 | 26.79434 | 38049 ft | 469 kts | 307° |
| 2026-05-06 06:00 | 44.51219 | 26.72013 | 38047 ft | 469 kts | 307° |
| 2026-05-06 06:01 | 44.54981 | 26.64548 | 38054 ft | 469 kts | 307° |
| 2026-05-06 06:01 | 44.58694 | 26.57012 | 38051 ft | 471 kts | 303° |
| 2026-05-06 06:02 | 44.61719 | 26.48842 | 38048 ft | 471 kts | 298° |
| 2026-05-06 06:02 | 44.64538 | 26.40552 | 38047 ft | 471 kts | 297° |
| 2026-05-06 06:03 | 44.67328 | 26.32206 | 38050 ft | 471 kts | 297° |
| 2026-05-06 06:03 | 44.70115 | 26.23876 | 38050 ft | 472 kts | 297° |
| 2026-05-06 06:04 | 44.72906 | 26.15537 | 38048 ft | 471 kts | 297° |
| 2026-05-06 06:04 | 44.75685 | 26.07215 | 38046 ft | 470 kts | 297° |
| 2026-05-06 06:05 | 44.78462 | 25.98877 | 38046 ft | 470 kts | 297° |
| 2026-05-06 06:05 | 44.81233 | 25.90527 | 38037 ft | 470 kts | 297° |
| 2026-05-06 06:06 | 44.83990 | 25.82194 | 38048 ft | 468 kts | 297° |
| 2026-05-06 06:06 | 44.86715 | 25.73931 | 38045 ft | 467 kts | 297° |
| 2026-05-06 06:07 | 44.89451 | 25.65609 | 38039 ft | 467 kts | 297° |
| 2026-05-06 06:07 | 44.92182 | 25.57276 | 38038 ft | 467 kts | 297° |
| 2026-05-06 06:08 | 44.94902 | 25.48949 | 38039 ft | 466 kts | 297° |
| 2026-05-06 06:08 | 44.97613 | 25.40622 | 38039 ft | 466 kts | 296° |
| 2026-05-06 06:09 | 45.00303 | 25.32337 | 38035 ft | 466 kts | 296° |
| 2026-05-06 06:09 | 45.03001 | 25.23998 | 38035 ft | 466 kts | 296° |
| 2026-05-06 06:10 | 45.05689 | 25.15664 | 38036 ft | 466 kts | 296° |
| 2026-05-06 06:10 | 45.08372 | 25.07320 | 38032 ft | 465 kts | 296° |
| 2026-05-06 06:11 | 45.11049 | 24.98965 | 38033 ft | 465 kts | 296° |
| 2026-05-06 06:11 | 45.13715 | 24.90620 | 38035 ft | 465 kts | 296° |
| 2026-05-06 06:12 | 45.16359 | 24.82316 | 38032 ft | 464 kts | 296° |
| 2026-05-06 06:12 | 45.19010 | 24.73964 | 38027 ft | 464 kts | 296° |
| 2026-05-06 06:13 | 45.21661 | 24.65587 | 38031 ft | 464 kts | 296° |
| 2026-05-06 06:13 | 45.24296 | 24.57231 | 38031 ft | 464 kts | 295° |
| 2026-05-06 06:14 | 45.26926 | 24.48863 | 38029 ft | 464 kts | 295° |
| 2026-05-06 06:14 | 45.29529 | 24.40555 | 38030 ft | 464 kts | 295° |
| 2026-05-06 06:15 | 45.32145 | 24.32183 | 38029 ft | 463 kts | 295° |
| 2026-05-06 06:15 | 45.34753 | 24.23801 | 38029 ft | 463 kts | 295° |
| 2026-05-06 06:16 | 45.37354 | 24.15418 | 38027 ft | 462 kts | 295° |
| 2026-05-06 06:16 | 45.39932 | 24.07083 | 38027 ft | 462 kts | 295° |
| 2026-05-06 06:17 | 45.42513 | 23.98705 | 38028 ft | 462 kts | 295° |
| 2026-05-06 06:17 | 45.45087 | 23.90330 | 38035 ft | 461 kts | 294° |
| 2026-05-06 06:18 | 45.47653 | 23.81947 | 38031 ft | 462 kts | 294° |
| 2026-05-06 06:18 | 45.50215 | 23.73553 | 38031 ft | 462 kts | 294° |
| 2026-05-06 06:19 | 45.52770 | 23.65157 | 38033 ft | 462 kts | 294° |
| 2026-05-06 06:19 | 45.55305 | 23.56796 | 38031 ft | 462 kts | 294° |
| 2026-05-06 06:20 | 45.57851 | 23.48370 | 38029 ft | 462 kts | 294° |
| 2026-05-06 06:20 | 45.60388 | 23.39947 | 38027 ft | 462 kts | 294° |
| 2026-05-06 06:21 | 45.62919 | 23.31516 | 38024 ft | 462 kts | 294° |
| 2026-05-06 06:21 | 45.65426 | 23.23129 | 38024 ft | 461 kts | 294° |
| 2026-05-06 06:22 | 45.67937 | 23.14710 | 38017 ft | 460 kts | 294° |
| 2026-05-06 06:22 | 45.70443 | 23.06280 | 38017 ft | 460 kts | 294° |
| 2026-05-06 06:23 | 45.72938 | 22.97857 | 38017 ft | 460 kts | 294° |
| 2026-05-06 06:23 | 45.75429 | 22.89418 | 38018 ft | 459 kts | 294° |
| 2026-05-06 06:24 | 45.77907 | 22.80993 | 38018 ft | 459 kts | 294° |
| 2026-05-06 06:24 | 45.80381 | 22.72555 | 38018 ft | 459 kts | 294° |
| 2026-05-06 06:25 | 45.82847 | 22.64115 | 38017 ft | 459 kts | 294° |
| 2026-05-06 06:26 | 45.86521 | 22.51486 | 38017 ft | 458 kts | 293° |
| 2026-05-06 06:26 | 45.88965 | 22.43051 | 38021 ft | 457 kts | 293° |
| 2026-05-06 06:27 | 45.91401 | 22.34614 | 38016 ft | 457 kts | 293° |
| 2026-05-06 06:27 | 45.93833 | 22.26160 | 38021 ft | 458 kts | 293° |
| 2026-05-06 06:28 | 45.96257 | 22.17708 | 38014 ft | 457 kts | 292° |
| 2026-05-06 06:28 | 45.98672 | 22.09252 | 38015 ft | 457 kts | 292° |
| 2026-05-06 06:29 | 46.01064 | 22.00853 | 38014 ft | 457 kts | 292° |
| 2026-05-06 06:29 | 46.03466 | 21.92388 | 38015 ft | 456 kts | 292° |
| 2026-05-06 06:30 | 46.05854 | 21.83942 | 38016 ft | 455 kts | 292° |
| 2026-05-06 06:30 | 46.08232 | 21.75505 | 38011 ft | 454 kts | 292° |
| 2026-05-06 06:31 | 46.10601 | 21.67067 | 38013 ft | 454 kts | 292° |
| 2026-05-06 06:31 | 46.12963 | 21.58629 | 38012 ft | 454 kts | 292° |
| 2026-05-06 06:32 | 46.15322 | 21.50173 | 38017 ft | 453 kts | 292° |
| 2026-05-06 06:32 | 46.17664 | 21.41745 | 38019 ft | 452 kts | 292° |
| 2026-05-06 06:33 | 46.19995 | 21.33326 | 38022 ft | 452 kts | 291° |
| 2026-05-06 06:33 | 46.22332 | 21.24860 | 38025 ft | 454 kts | 291° |
| 2026-05-06 06:34 | 46.24659 | 21.16400 | 38021 ft | 453 kts | 291° |
| 2026-05-06 06:34 | 46.26991 | 21.07946 | 38015 ft | 452 kts | 292° |
| 2026-05-06 06:35 | 46.29622 | 20.99760 | 38012 ft | 452 kts | 295° |
| 2026-05-06 06:35 | 46.32400 | 20.91591 | 38006 ft | 452 kts | 295° |
| 2026-05-06 06:36 | 46.35126 | 20.83395 | 37999 ft | 451 kts | 294° |
| 2026-05-06 06:36 | 46.37799 | 20.75186 | 37997 ft | 450 kts | 294° |
| 2026-05-06 06:37 | 46.40454 | 20.66963 | 37996 ft | 450 kts | 294° |
| 2026-05-06 06:37 | 46.43107 | 20.58724 | 37992 ft | 450 kts | 294° |
| 2026-05-06 06:38 | 46.45736 | 20.50541 | 37994 ft | 450 kts | 293° |
| 2026-05-06 06:38 | 46.48379 | 20.42293 | 37991 ft | 451 kts | 293° |
| 2026-05-06 06:39 | 46.51016 | 20.34031 | 37992 ft | 451 kts | 293° |
| 2026-05-06 06:39 | 46.53654 | 20.25744 | 37990 ft | 451 kts | 293° |
| 2026-05-06 06:40 | 46.56280 | 20.17465 | 37988 ft | 451 kts | 293° |
| 2026-05-06 06:40 | 46.58896 | 20.09191 | 37982 ft | 451 kts | 293° |
| 2026-05-06 06:41 | 46.61070 | 20.02297 | 37975 ft | 451 kts | 293° |
| 2026-05-06 06:41 | 46.63675 | 19.94009 | 37972 ft | 451 kts | 293° |
| 2026-05-06 06:42 | 46.66283 | 19.85685 | 37973 ft | 451 kts | 293° |
| 2026-05-06 06:42 | 46.68880 | 19.77369 | 37968 ft | 451 kts | 292° |
| 2026-05-06 06:43 | 46.71470 | 19.69047 | 37968 ft | 451 kts | 292° |
| 2026-05-06 06:43 | 46.74038 | 19.60770 | 37966 ft | 451 kts | 292° |
| 2026-05-06 06:44 | 46.76623 | 19.52409 | 37963 ft | 452 kts | 292° |
| 2026-05-06 06:44 | 46.79203 | 19.44037 | 37960 ft | 453 kts | 292° |
| 2026-05-06 06:45 | 46.81781 | 19.35635 | 37960 ft | 453 kts | 292° |
| 2026-05-06 06:45 | 46.84329 | 19.27223 | 37958 ft | 453 kts | 291° |
| 2026-05-06 06:46 | 46.86857 | 19.18832 | 37953 ft | 453 kts | 291° |
| 2026-05-06 06:46 | 46.89391 | 19.10403 | 37955 ft | 453 kts | 291° |
| 2026-05-06 06:47 | 46.91929 | 19.01942 | 37949 ft | 454 kts | 291° |
| 2026-05-06 06:47 | 46.94452 | 18.93501 | 37944 ft | 454 kts | 291° |
| 2026-05-06 06:48 | 46.96988 | 18.84991 | 37947 ft | 454 kts | 291° |
| 2026-05-06 06:48 | 46.99513 | 18.76486 | 37942 ft | 454 kts | 291° |
| 2026-05-06 06:49 | 47.02020 | 18.68014 | 37942 ft | 456 kts | 291° |
| 2026-05-06 06:49 | 47.04538 | 18.59475 | 37939 ft | 456 kts | 291° |
| 2026-05-06 06:50 | 47.07052 | 18.50919 | 37934 ft | 456 kts | 290° |
| 2026-05-06 06:50 | 47.09558 | 18.42362 | 37934 ft | 456 kts | 290° |
| 2026-05-06 06:51 | 47.12044 | 18.33843 | 37928 ft | 457 kts | 290° |
| 2026-05-06 06:51 | 47.14546 | 18.25239 | 37928 ft | 457 kts | 290° |
| 2026-05-06 06:52 | 47.16777 | 18.17539 | 37929 ft | 457 kts | 290° |
| 2026-05-06 06:52 | 47.17951 | 18.13481 | 37928 ft | 457 kts | 290° |
| 2026-05-06 06:53 | 47.19213 | 18.09109 | 37925 ft | 457 kts | 290° |
| 2026-05-06 06:53 | 47.20296 | 18.05357 | 37924 ft | 457 kts | 290° |
| 2026-05-06 06:54 | 47.21278 | 18.01922 | 37934 ft | 456 kts | 289° |
| 2026-05-06 06:54 | 47.22380 | 17.98058 | 37928 ft | 456 kts | 288° |
| 2026-05-06 06:55 | 47.23338 | 17.94640 | 37923 ft | 455 kts | 288° |
| 2026-05-06 06:55 | 47.24318 | 17.91078 | 37853 ft | 452 kts | 283° |
| 2026-05-06 06:55 | 47.24840 | 17.89309 | 37765 ft | 459 kts | 300° |
| 2026-05-06 06:56 | 47.25560 | 17.87434 | 37537 ft | 455 kts | 285° |
| 2026-05-06 06:56 | 47.25920 | 17.85295 | 36905 ft | 458 kts | 279° |
| 2026-05-06 06:56 | 47.26450 | 17.83414 | 36273 ft | 469 kts | 305° |
| 2026-05-06 06:56 | 47.27205 | 17.81872 | 35544 ft | 474 kts | 293° |
| 2026-05-06 06:57 | 47.27684 | 17.78719 | 33435 ft | 482 kts | 271° |
| 2026-05-06 06:57 | 47.28108 | 17.73918 | 33589 ft | 457 kts | 279° |
| 2026-05-06 06:57 | 47.28768 | 17.69464 | 34895 ft | 434 kts | 279° |
| 2026-05-06 06:57 | 47.29449 | 17.65219 | 35881 ft | 420 kts | 284° |
| 2026-05-06 06:58 | 47.30272 | 17.61721 | 36334 ft | 418 kts | 288° |
| 2026-05-06 06:58 | 47.31114 | 17.58689 | 36488 ft | 420 kts | 290° |
| 2026-05-06 06:59 | 47.32045 | 17.55619 | 36616 ft | 421 kts | 291° |
| 2026-05-06 06:59 | 47.33007 | 17.52629 | 36709 ft | 423 kts | 291° |
| 2026-05-06 07:00 | 47.34055 | 17.49338 | 36769 ft | 423 kts | 289° |
| 2026-05-06 07:00 | 47.35043 | 17.46189 | 36717 ft | 423 kts | 283° |
| 2026-05-06 07:00 | 47.35421 | 17.44696 | 36586 ft | 428 kts | 294° |
| 2026-05-06 07:01 | 47.35989 | 17.43301 | 36268 ft | 439 kts | 302° |
| 2026-05-06 07:01 | 47.36550 | 17.41716 | 35873 ft | 437 kts | 282° |
| 2026-05-06 07:01 | 47.36785 | 17.40104 | 35186 ft | 447 kts | 278° |
| 2026-05-06 07:01 | 47.37224 | 17.38377 | 34464 ft | 459 kts | 303° |
| 2026-05-06 07:02 | 47.38127 | 17.36623 | 33080 ft | 481 kts | 296° |
| 2026-05-06 07:02 | 47.39086 | 17.31905 | 33121 ft | 461 kts | 281° |
| 2026-05-06 07:02 | 47.40016 | 17.27653 | 35142 ft | 427 kts | 289° |
| 2026-05-06 07:02 | 47.41248 | 17.23742 | 36141 ft | 415 kts | 293° |
| 2026-05-06 07:03 | 47.42605 | 17.19993 | 36579 ft | 412 kts | 294° |
| 2026-05-06 07:03 | 47.43963 | 17.16297 | 36730 ft | 414 kts | 294° |
| 2026-05-06 07:03 | 47.45292 | 17.12524 | 36827 ft | 415 kts | 292° |
| 2026-05-06 07:04 | 47.47809 | 17.04802 | 36913 ft | 422 kts | 290° |
| 2026-05-06 07:04 | 47.50260 | 16.96789 | 36911 ft | 432 kts | 290° |
| 2026-05-06 07:05 | 47.52744 | 16.88549 | 36917 ft | 443 kts | 290° |
| 2026-05-06 07:05 | 47.55273 | 16.80165 | 36911 ft | 453 kts | 290° |
| 2026-05-06 07:06 | 47.57855 | 16.71652 | 37229 ft | 456 kts | 290° |
| 2026-05-06 07:06 | 47.59182 | 16.67372 | 37444 ft | 456 kts | 291° |
| 2026-05-06 07:06 | 47.60511 | 16.63107 | 37622 ft | 456 kts | 291° |
| 2026-05-06 07:06 | 47.61845 | 16.58828 | 37816 ft | 457 kts | 290° |
| 2026-05-06 07:07 | 47.63177 | 16.54538 | 37898 ft | 459 kts | 290° |
| 2026-05-06 07:07 | 47.65839 | 16.45914 | 37893 ft | 463 kts | 290° |
| 2026-05-06 07:08 | 47.68517 | 16.37195 | 37891 ft | 462 kts | 290° |
| 2026-05-06 07:08 | 47.71184 | 16.28480 | 37892 ft | 463 kts | 290° |
| 2026-05-06 07:09 | 47.73825 | 16.19815 | 37886 ft | 462 kts | 290° |
| 2026-05-06 07:09 | 47.76475 | 16.11087 | 37886 ft | 464 kts | 290° |
| 2026-05-06 07:10 | 47.79135 | 16.02296 | 37884 ft | 465 kts | 290° |
| 2026-05-06 07:10 | 47.81765 | 15.93579 | 37888 ft | 465 kts | 290° |
| 2026-05-06 07:11 | 47.84402 | 15.84805 | 37882 ft | 465 kts | 290° |
| 2026-05-06 07:11 | 47.87049 | 15.75966 | 37886 ft | 466 kts | 289° |
| 2026-05-06 07:12 | 47.89680 | 15.67152 | 37876 ft | 467 kts | 289° |
| 2026-05-06 07:12 | 47.92315 | 15.58292 | 37878 ft | 468 kts | 289° |
| 2026-05-06 07:13 | 47.94943 | 15.49419 | 37865 ft | 468 kts | 289° |
| 2026-05-06 07:13 | 47.97568 | 15.40529 | 37864 ft | 468 kts | 289° |
| 2026-05-06 07:14 | 48.00190 | 15.31613 | 37867 ft | 469 kts | 289° |
| 2026-05-06 07:14 | 48.02814 | 15.22664 | 37863 ft | 469 kts | 289° |
| 2026-05-06 07:15 | 48.05427 | 15.13712 | 37881 ft | 469 kts | 289° |
| 2026-05-06 07:15 | 48.08010 | 15.04834 | 37895 ft | 469 kts | 289° |
| 2026-05-06 07:16 | 48.10591 | 14.95942 | 37857 ft | 461 kts | 288° |
| 2026-05-06 07:16 | 48.13119 | 14.87185 | 37855 ft | 461 kts | 288° |
| 2026-05-06 07:17 | 48.15656 | 14.78355 | 37849 ft | 461 kts | 288° |
| 2026-05-06 07:17 | 48.18190 | 14.69514 | 37850 ft | 461 kts | 288° |
| 2026-05-06 07:18 | 48.20711 | 14.60692 | 37854 ft | 460 kts | 288° |
| 2026-05-06 07:18 | 48.23209 | 14.51917 | 37855 ft | 459 kts | 288° |
| 2026-05-06 07:19 | 48.26015 | 14.43278 | 37851 ft | 462 kts | 292° |
| 2026-05-06 07:19 | 48.29026 | 14.34737 | 37859 ft | 463 kts | 292° |
| 2026-05-06 07:20 | 48.32067 | 14.26196 | 37862 ft | 463 kts | 292° |
| 2026-05-06 07:20 | 48.35095 | 14.17661 | 37860 ft | 463 kts | 292° |
| 2026-05-06 07:21 | 48.38115 | 14.09099 | 37847 ft | 463 kts | 292° |
| 2026-05-06 07:21 | 48.41108 | 14.00582 | 37845 ft | 463 kts | 292° |
| 2026-05-06 07:22 | 48.44114 | 13.91995 | 37858 ft | 463 kts | 292° |
| 2026-05-06 07:22 | 48.47117 | 13.83388 | 37857 ft | 465 kts | 291° |
| 2026-05-06 07:23 | 48.50121 | 13.74752 | 37841 ft | 465 kts | 291° |
| 2026-05-06 07:23 | 48.53123 | 13.66098 | 37844 ft | 466 kts | 291° |
| 2026-05-06 07:24 | 48.56116 | 13.57438 | 37838 ft | 465 kts | 291° |
| 2026-05-06 07:24 | 48.59113 | 13.48732 | 37842 ft | 467 kts | 291° |
| 2026-05-06 07:25 | 48.62014 | 13.39983 | 37844 ft | 468 kts | 290° |
| 2026-05-06 07:25 | 48.64882 | 13.31122 | 37843 ft | 468 kts | 290° |
| 2026-05-06 07:26 | 48.67737 | 13.22317 | 37837 ft | 468 kts | 290° |
| 2026-05-06 07:26 | 48.70615 | 13.13453 | 37835 ft | 468 kts | 290° |
| 2026-05-06 07:27 | 48.73006 | 13.06076 | 37836 ft | 470 kts | 290° |
| 2026-05-06 07:27 | 48.75896 | 12.97137 | 37835 ft | 471 kts | 290° |
| 2026-05-06 07:28 | 48.78772 | 12.88205 | 37835 ft | 471 kts | 290° |
| 2026-05-06 07:28 | 48.83053 | 12.74848 | 37841 ft | 470 kts | 290° |
| 2026-05-06 07:29 | 48.85887 | 12.65969 | 37838 ft | 469 kts | 290° |
| 2026-05-06 07:29 | 48.88735 | 12.57015 | 37839 ft | 469 kts | 290° |
| 2026-05-06 07:30 | 48.91554 | 12.48117 | 37843 ft | 469 kts | 290° |
| 2026-05-06 07:30 | 48.94383 | 12.39155 | 37849 ft | 469 kts | 290° |
| 2026-05-06 07:31 | 48.97194 | 12.30216 | 37842 ft | 471 kts | 290° |
| 2026-05-06 07:31 | 49.00021 | 12.21194 | 37840 ft | 472 kts | 290° |
| 2026-05-06 07:32 | 49.02826 | 12.12219 | 37837 ft | 472 kts | 290° |
| 2026-05-06 07:32 | 49.05643 | 12.03166 | 37833 ft | 472 kts | 290° |
| 2026-05-06 07:33 | 49.08454 | 11.94099 | 37837 ft | 472 kts | 291° |
| 2026-05-06 07:33 | 49.11247 | 11.85054 | 37833 ft | 474 kts | 291° |
| 2026-05-06 07:34 | 49.14054 | 11.75935 | 37833 ft | 474 kts | 291° |
| 2026-05-06 07:34 | 49.16840 | 11.66858 | 37835 ft | 473 kts | 291° |
| 2026-05-06 07:35 | 49.19623 | 11.57750 | 37848 ft | 473 kts | 291° |
| 2026-05-06 07:35 | 49.22404 | 11.48612 | 37829 ft | 473 kts | 290° |
| 2026-05-06 07:36 | 49.25179 | 11.39464 | 37799 ft | 473 kts | 290° |
| 2026-05-06 07:36 | 49.27943 | 11.30314 | 37820 ft | 473 kts | 290° |
| 2026-05-06 07:37 | 49.30683 | 11.21209 | 37815 ft | 473 kts | 290° |
| 2026-05-06 07:37 | 49.33440 | 11.12015 | 37805 ft | 474 kts | 290° |
| 2026-05-06 07:38 | 49.36177 | 11.02854 | 37803 ft | 474 kts | 290° |
| 2026-05-06 07:38 | 49.38926 | 10.93618 | 37803 ft | 474 kts | 290° |
| 2026-05-06 07:39 | 49.41804 | 10.84491 | 37808 ft | 476 kts | 292° |
| 2026-05-06 07:39 | 49.44792 | 10.75460 | 37836 ft | 476 kts | 293° |
| 2026-05-06 07:40 | 49.47780 | 10.66344 | 37822 ft | 477 kts | 292° |
| 2026-05-06 07:40 | 49.50725 | 10.57231 | 37814 ft | 477 kts | 292° |
| 2026-05-06 07:41 | 49.53664 | 10.48065 | 37809 ft | 477 kts | 292° |
| 2026-05-06 07:41 | 49.56597 | 10.38883 | 37806 ft | 477 kts | 292° |
| 2026-05-06 07:42 | 49.59506 | 10.29742 | 37800 ft | 478 kts | 292° |
| 2026-05-06 07:42 | 49.62434 | 10.20512 | 37797 ft | 478 kts | 292° |
| 2026-05-06 07:43 | 49.65335 | 10.11335 | 37794 ft | 478 kts | 292° |
| 2026-05-06 07:43 | 49.68246 | 10.02090 | 37792 ft | 478 kts | 292° |
| 2026-05-06 07:44 | 49.71154 | 9.92823 | 37794 ft | 478 kts | 292° |
| 2026-05-06 07:44 | 49.74048 | 9.83560 | 37788 ft | 480 kts | 292° |
| 2026-05-06 07:45 | 49.76952 | 9.74237 | 37784 ft | 481 kts | 292° |
| 2026-05-06 07:45 | 49.79828 | 9.64969 | 37786 ft | 481 kts | 292° |
| 2026-05-06 07:46 | 49.82724 | 9.55597 | 37781 ft | 481 kts | 292° |
| 2026-05-06 07:46 | 49.85612 | 9.46215 | 37779 ft | 483 kts | 292° |
| 2026-05-06 07:47 | 49.88494 | 9.36820 | 37780 ft | 484 kts | 292° |
| 2026-05-06 07:47 | 49.91380 | 9.27376 | 37779 ft | 484 kts | 292° |
| 2026-05-06 07:48 | 49.94261 | 9.17912 | 37777 ft | 484 kts | 292° |
| 2026-05-06 07:48 | 49.97113 | 9.08506 | 37775 ft | 484 kts | 292° |
| 2026-05-06 07:49 | 49.99984 | 8.98997 | 37771 ft | 486 kts | 292° |
| 2026-05-06 07:49 | 50.02845 | 8.89486 | 37770 ft | 486 kts | 292° |
| 2026-05-06 07:50 | 50.05706 | 8.79940 | 37776 ft | 486 kts | 292° |
| 2026-05-06 07:50 | 50.08348 | 8.70307 | 37774 ft | 485 kts | 288° |
| 2026-05-06 07:51 | 50.10765 | 8.60515 | 37775 ft | 484 kts | 288° |
| 2026-05-06 07:51 | 50.13194 | 8.50707 | 37773 ft | 485 kts | 288° |
| 2026-05-06 07:52 | 50.15659 | 8.40920 | 37793 ft | 485 kts | 288° |
| 2026-05-06 07:52 | 50.18138 | 8.31111 | 37790 ft | 485 kts | 288° |
| 2026-05-06 07:53 | 50.20600 | 8.21339 | 37785 ft | 486 kts | 288° |
| 2026-05-06 07:53 | 50.23066 | 8.11494 | 37777 ft | 487 kts | 288° |
| 2026-05-06 07:54 | 50.25531 | 8.01609 | 37768 ft | 487 kts | 288° |
| 2026-05-06 07:54 | 50.27986 | 7.91714 | 37757 ft | 487 kts | 288° |
| 2026-05-06 07:55 | 50.30417 | 7.81877 | 37764 ft | 487 kts | 288° |
| 2026-05-06 07:55 | 50.32850 | 7.71983 | 37755 ft | 486 kts | 288° |
| 2026-05-06 07:56 | 50.35275 | 7.62082 | 37754 ft | 486 kts | 288° |
| 2026-05-06 07:56 | 50.37683 | 7.52205 | 37761 ft | 486 kts | 288° |
| 2026-05-06 07:57 | 50.40075 | 7.42351 | 37758 ft | 486 kts | 288° |
| 2026-05-06 07:57 | 50.42469 | 7.32446 | 37752 ft | 486 kts | 288° |
| 2026-05-06 07:58 | 50.44850 | 7.22544 | 37754 ft | 487 kts | 288° |
| 2026-05-06 07:58 | 50.47230 | 7.12601 | 37756 ft | 487 kts | 288° |
| 2026-05-06 07:59 | 50.49608 | 7.02622 | 37765 ft | 487 kts | 288° |
| 2026-05-06 07:59 | 50.51957 | 6.92724 | 37774 ft | 487 kts | 288° |
| 2026-05-06 08:00 | 50.54315 | 6.82738 | 37776 ft | 489 kts | 288° |
| 2026-05-06 08:00 | 50.56662 | 6.72752 | 37768 ft | 489 kts | 288° |
| 2026-05-06 08:01 | 50.59022 | 6.62668 | 37764 ft | 489 kts | 288° |
| 2026-05-06 08:01 | 50.61361 | 6.52624 | 37793 ft | 489 kts | 288° |
| 2026-05-06 08:02 | 50.63680 | 6.42618 | 37779 ft | 489 kts | 288° |
| 2026-05-06 08:02 | 50.66002 | 6.32553 | 37786 ft | 489 kts | 288° |
| 2026-05-06 08:03 | 50.68333 | 6.22403 | 37790 ft | 489 kts | 287° |
| 2026-05-06 08:03 | 50.70626 | 6.12369 | 37801 ft | 489 kts | 287° |
| 2026-05-06 08:04 | 50.72924 | 6.02263 | 37801 ft | 488 kts | 287° |
| 2026-05-06 08:04 | 50.75201 | 5.92205 | 37821 ft | 487 kts | 287° |
| 2026-05-06 08:05 | 50.77465 | 5.82159 | 37824 ft | 487 kts | 287° |
| 2026-05-06 08:05 | 50.79735 | 5.72033 | 37826 ft | 487 kts | 287° |
| 2026-05-06 08:06 | 50.81989 | 5.61929 | 37835 ft | 487 kts | 287° |
| 2026-05-06 08:06 | 50.84232 | 5.51825 | 37823 ft | 486 kts | 287° |
| 2026-05-06 08:07 | 50.86467 | 5.41705 | 37826 ft | 486 kts | 287° |
| 2026-05-06 08:07 | 50.88672 | 5.31680 | 37821 ft | 486 kts | 287° |
| 2026-05-06 08:08 | 50.90889 | 5.21551 | 37832 ft | 486 kts | 287° |
| 2026-05-06 08:08 | 50.93090 | 5.11444 | 37837 ft | 486 kts | 287° |
| 2026-05-06 08:09 | 50.95291 | 5.01284 | 37843 ft | 486 kts | 287° |
| 2026-05-06 08:09 | 50.97486 | 4.91106 | 37841 ft | 486 kts | 287° |
| 2026-05-06 08:10 | 50.99663 | 4.80959 | 37854 ft | 486 kts | 287° |
| 2026-05-06 08:10 | 51.01832 | 4.70796 | 37870 ft | 486 kts | 287° |
| 2026-05-06 08:11 | 51.03983 | 4.60669 | 37854 ft | 486 kts | 287° |
| 2026-05-06 08:11 | 51.06144 | 4.50440 | 37881 ft | 486 kts | 287° |
| 2026-05-06 08:12 | 51.08286 | 4.40257 | 37883 ft | 486 kts | 287° |
| 2026-05-06 08:12 | 51.10411 | 4.30097 | 37882 ft | 486 kts | 287° |
| 2026-05-06 08:13 | 51.12548 | 4.19832 | 37876 ft | 486 kts | 287° |
| 2026-05-06 08:13 | 51.14659 | 4.09640 | 37875 ft | 486 kts | 287° |
| 2026-05-06 08:14 | 51.16520 | 4.00623 | 37871 ft | 486 kts | 287° |
| 2026-05-06 08:14 | 51.18610 | 3.90429 | 37870 ft | 486 kts | 286° |
| 2026-05-06 08:15 | 51.20349 | 3.81899 | 37869 ft | 486 kts | 286° |
| 2026-05-06 08:15 | 51.22437 | 3.71626 | 37874 ft | 486 kts | 286° |
| 2026-05-06 08:16 | 51.25145 | 3.61738 | 37877 ft | 488 kts | 297° |
| 2026-05-06 08:16 | 51.28523 | 3.52403 | 37878 ft | 489 kts | 298° |
| 2026-05-06 08:17 | 51.32030 | 3.43014 | 37889 ft | 489 kts | 299° |
| 2026-05-06 08:17 | 51.35229 | 3.33511 | 37894 ft | 488 kts | 290° |
| 2026-05-06 08:18 | 51.37731 | 3.23408 | 37884 ft | 487 kts | 288° |
| 2026-05-06 08:18 | 51.40121 | 3.13265 | 37886 ft | 487 kts | 289° |
| 2026-05-06 08:19 | 51.42503 | 3.03084 | 37913 ft | 487 kts | 289° |
| 2026-05-06 08:19 | 51.44872 | 2.92961 | 37896 ft | 487 kts | 289° |
| 2026-05-06 08:20 | 51.47250 | 2.82768 | 37900 ft | 487 kts | 288° |
| 2026-05-06 08:20 | 51.49615 | 2.72591 | 37925 ft | 486 kts | 288° |
| 2026-05-06 08:21 | 51.51963 | 2.62430 | 37901 ft | 485 kts | 288° |
| 2026-05-06 08:21 | 51.53122 | 2.57395 | 37552 ft | 484 kts | 288° |
| 2026-05-06 08:21 | 51.54292 | 2.52305 | 36879 ft | 482 kts | 288° |
| 2026-05-06 08:22 | 51.55452 | 2.47243 | 36290 ft | 480 kts | 289° |
| 2026-05-06 08:22 | 51.56605 | 2.42204 | 35676 ft | 478 kts | 289° |
| 2026-05-06 08:22 | 51.57748 | 2.37190 | 35034 ft | 477 kts | 289° |
| 2026-05-06 08:22 | 51.58889 | 2.32181 | 34369 ft | 477 kts | 289° |
| 2026-05-06 08:23 | 51.60016 | 2.27230 | 33633 ft | 478 kts | 289° |
| 2026-05-06 08:23 | 51.61154 | 2.22215 | 32867 ft | 477 kts | 289° |
| 2026-05-06 08:23 | 51.62291 | 2.17194 | 32133 ft | 477 kts | 289° |
| 2026-05-06 08:23 | 51.63424 | 2.12179 | 31387 ft | 477 kts | 289° |
| 2026-05-06 08:24 | 51.64556 | 2.07159 | 30645 ft | 478 kts | 289° |
| 2026-05-06 08:24 | 51.65691 | 2.02102 | 29857 ft | 479 kts | 288° |
| 2026-05-06 08:24 | 51.66818 | 1.97055 | 28994 ft | 479 kts | 289° |
| 2026-05-06 08:24 | 51.67942 | 1.92018 | 28371 ft | 475 kts | 288° |
| 2026-05-06 08:25 | 51.69050 | 1.87042 | 27828 ft | 469 kts | 288° |
| 2026-05-06 08:25 | 51.70148 | 1.82106 | 27266 ft | 464 kts | 288° |
| 2026-05-06 08:25 | 51.71226 | 1.77239 | 26728 ft | 459 kts | 288° |
| 2026-05-06 08:25 | 51.72218 | 1.72397 | 26420 ft | 448 kts | 283° |
| 2026-05-06 08:26 | 51.72832 | 1.67552 | 25668 ft | 448 kts | 276° |
| 2026-05-06 08:26 | 51.72941 | 1.62506 | 24691 ft | 453 kts | 266° |
| 2026-05-06 08:26 | 51.72793 | 1.57421 | 23955 ft | 451 kts | 265° |
| 2026-05-06 08:26 | 51.72617 | 1.52430 | 22805 ft | 442 kts | 265° |
| 2026-05-06 08:27 | 51.72433 | 1.47450 | 21655 ft | 446 kts | 266° |
| 2026-05-06 08:27 | 51.72250 | 1.42490 | 21160 ft | 438 kts | 266° |
| 2026-05-06 08:27 | 51.72071 | 1.37712 | 20663 ft | 417 kts | 266° |
| 2026-05-06 08:27 | 51.71896 | 1.33093 | 20171 ft | 409 kts | 266° |
| 2026-05-06 08:28 | 51.71722 | 1.28538 | 19682 ft | 405 kts | 266° |
| 2026-05-06 08:28 | 51.71547 | 1.24026 | 19192 ft | 401 kts | 266° |
| 2026-05-06 08:28 | 51.71373 | 1.19552 | 18703 ft | 398 kts | 266° |
| 2026-05-06 08:28 | 51.71197 | 1.15115 | 18209 ft | 395 kts | 267° |
| 2026-05-06 08:29 | 51.71022 | 1.10703 | 17666 ft | 391 kts | 267° |
| 2026-05-06 08:29 | 51.70848 | 1.06352 | 17182 ft | 387 kts | 266° |
| 2026-05-06 08:29 | 51.70674 | 1.02049 | 16694 ft | 383 kts | 266° |
| 2026-05-06 08:29 | 51.70500 | 0.97783 | 16213 ft | 380 kts | 266° |
| 2026-05-06 08:30 | 51.70326 | 0.93602 | 15807 ft | 374 kts | 266° |
| 2026-05-06 08:30 | 51.70061 | 0.89305 | 15648 ft | 388 kts | 264° |
| 2026-05-06 08:30 | 51.69734 | 0.84943 | 15455 ft | 395 kts | 263° |
| 2026-05-06 08:30 | 51.69413 | 0.80630 | 15236 ft | 389 kts | 264° |
| 2026-05-06 08:31 | 51.69101 | 0.76373 | 15021 ft | 376 kts | 264° |
| 2026-05-06 08:31 | 51.68803 | 0.72255 | 14786 ft | 364 kts | 264° |
| 2026-05-06 08:31 | 51.68515 | 0.68267 | 14555 ft | 353 kts | 264° |
| 2026-05-06 08:31 | 51.68238 | 0.64394 | 14309 ft | 339 kts | 264° |
| 2026-05-06 08:32 | 51.67974 | 0.60749 | 14085 ft | 316 kts | 264° |
| 2026-05-06 08:32 | 51.67726 | 0.57351 | 13881 ft | 296 kts | 264° |
| 2026-05-06 08:32 | 51.67486 | 0.54034 | 13694 ft | 298 kts | 264° |
| 2026-05-06 08:32 | 51.67247 | 0.50730 | 13496 ft | 297 kts | 264° |
| 2026-05-06 08:33 | 51.67006 | 0.47418 | 13296 ft | 297 kts | 264° |
| 2026-05-06 08:33 | 51.66768 | 0.44110 | 13084 ft | 297 kts | 264° |
| 2026-05-06 08:33 | 51.66522 | 0.40786 | 12904 ft | 297 kts | 265° |
| 2026-05-06 08:33 | 51.66276 | 0.37487 | 12711 ft | 295 kts | 264° |
| 2026-05-06 08:34 | 51.66034 | 0.34244 | 12543 ft | 295 kts | 265° |
| 2026-05-06 08:34 | 51.65549 | 0.27720 | 12185 ft | 293 kts | 264° |
| 2026-05-06 08:34 | 51.65319 | 0.24560 | 12008 ft | 293 kts | 265° |
| 2026-05-06 08:35 | 51.65106 | 0.21187 | 11782 ft | 292 kts | 266° |
| 2026-05-06 08:35 | 51.64909 | 0.17926 | 11559 ft | 292 kts | 267° |
| 2026-05-06 08:35 | 51.64696 | 0.14680 | 11330 ft | 291 kts | 265° |
| 2026-05-06 08:35 | 51.64483 | 0.11431 | 11041 ft | 290 kts | 266° |
| 2026-05-06 08:36 | 51.64250 | 0.08219 | 10736 ft | 288 kts | 265° |
| 2026-05-06 08:36 | 51.64022 | 0.05015 | 10447 ft | 287 kts | 266° |
| 2026-05-06 08:36 | 51.63800 | 0.01825 | 10151 ft | 287 kts | 266° |
| 2026-05-06 08:36 | 51.63584 | -0.01366 | 9877 ft | 286 kts | 266° |
| 2026-05-06 08:37 | 51.63370 | -0.04515 | 9558 ft | 285 kts | 266° |
| 2026-05-06 08:37 | 51.63144 | -0.07670 | 9365 ft | 283 kts | 265° |
| 2026-05-06 08:37 | 51.62921 | -0.10775 | 9192 ft | 282 kts | 265° |
| 2026-05-06 08:37 | 51.62690 | -0.13878 | 9035 ft | 281 kts | 266° |
| 2026-05-06 08:38 | 51.62452 | -0.17003 | 8861 ft | 280 kts | 266° |
| 2026-05-06 08:38 | 51.62220 | -0.20107 | 8723 ft | 279 kts | 266° |
| 2026-05-06 08:38 | 51.61984 | -0.23217 | 8573 ft | 278 kts | 266° |
| 2026-05-06 08:38 | 51.61757 | -0.26299 | 8456 ft | 278 kts | 266° |
| 2026-05-06 08:39 | 51.61525 | -0.29395 | 8356 ft | 277 kts | 265° |
| 2026-05-06 08:39 | 51.61292 | -0.32465 | 8239 ft | 276 kts | 266° |
| 2026-05-06 08:39 | 51.61058 | -0.35497 | 8163 ft | 275 kts | 265° |
| 2026-05-06 08:39 | 51.60821 | -0.38548 | 8006 ft | 275 kts | 266° |
| 2026-05-06 08:40 | 51.60586 | -0.41593 | 7805 ft | 274 kts | 266° |
| 2026-05-06 08:40 | 51.60344 | -0.44637 | 7597 ft | 273 kts | 266° |
| 2026-05-06 08:40 | 51.60101 | -0.47653 | 7391 ft | 272 kts | 266° |
| 2026-05-06 08:40 | 51.59853 | -0.50673 | 7234 ft | 271 kts | 266° |
| 2026-05-06 08:41 | 51.59604 | -0.53667 | 7099 ft | 270 kts | 266° |
| 2026-05-06 08:41 | 51.59352 | -0.56662 | 6999 ft | 268 kts | 266° |
| 2026-05-06 08:41 | 51.59098 | -0.59635 | 6819 ft | 268 kts | 266° |
| 2026-05-06 08:41 | 51.58843 | -0.62601 | 6492 ft | 267 kts | 266° |
| 2026-05-06 08:42 | 51.58584 | -0.65529 | 6131 ft | 266 kts | 265° |
| 2026-05-06 08:42 | 51.58315 | -0.68500 | 5759 ft | 265 kts | 266° |
| 2026-05-06 08:42 | 51.58049 | -0.71385 | 5401 ft | 264 kts | 266° |
| 2026-05-06 08:42 | 51.57768 | -0.74319 | 5020 ft | 265 kts | 266° |
| 2026-05-06 08:43 | 51.57478 | -0.77240 | 4527 ft | 266 kts | 265° |
| 2026-05-06 08:43 | 51.57191 | -0.80192 | 4042 ft | 267 kts | 265° |
| 2026-05-06 08:43 | 51.56792 | -0.83113 | 3542 ft | 271 kts | 251° |
| 2026-05-06 08:43 | 51.55701 | -0.85558 | 3241 ft | 273 kts | 221° |
| 2026-05-06 08:44 | 51.54010 | -0.86933 | 3138 ft | 275 kts | 192° |
| 2026-05-06 08:44 | 51.52118 | -0.86943 | 3026 ft | 272 kts | 164° |
| 2026-05-06 08:44 | 51.50464 | -0.85598 | 2994 ft | 266 kts | 135° |
| 2026-05-06 08:44 | 51.49260 | -0.83392 | 2996 ft | 261 kts | 122° |
| 2026-05-06 08:45 | 51.48261 | -0.81086 | 2973 ft | 241 kts | 118° |
| 2026-05-06 08:45 | 51.47679 | -0.78728 | 2978 ft | 216 kts | 98° |
| 2026-05-06 08:45 | 51.47548 | -0.76476 | 3001 ft | 193 kts | 84° |
| 2026-05-06 08:45 | 51.47578 | -0.74362 | 2994 ft | 188 kts | 84° |
| 2026-05-06 08:46 | 51.47612 | -0.72302 | 3015 ft | 178 kts | 84° |
| 2026-05-06 08:46 | 51.47634 | -0.70368 | 2878 ft | 170 kts | 84° |
| 2026-05-06 08:46 | 51.47651 | -0.68508 | 2679 ft | 168 kts | 84° |
| 2026-05-06 08:46 | 51.47680 | -0.66645 | 2464 ft | 166 kts | 84° |
| 2026-05-06 08:47 | 51.47682 | -0.64821 | 2241 ft | 160 kts | 85° |
| 2026-05-06 08:47 | 51.47685 | -0.63065 | 1934 ft | 155 kts | 85° |
| 2026-05-06 08:47 | 51.47716 | -0.61374 | 1673 ft | 148 kts | 84° |
| 2026-05-06 08:47 | 51.47726 | -0.59751 | 1453 ft | 145 kts | 86° |
| 2026-05-06 08:48 | 51.47712 | -0.58128 | 1320 ft | 146 kts | 86° |
| 2026-05-06 08:48 | 51.47701 | -0.56503 | 1114 ft | 145 kts | 86° |
| 2026-05-06 08:48 | 51.47708 | -0.54880 | 946 ft | 145 kts | 85° |
| 2026-05-06 08:48 | 51.47729 | -0.53282 | 731 ft | 145 kts | 85° |
| 2026-05-06 08:49 | 51.47732 | -0.51673 | 466 ft | 142 kts | 85° |
| 2026-05-06 08:49 | 51.47739 | -0.50056 | 305 ft | 150 kts | 84° |
| 2026-05-06 08:49 | 51.47751 | -0.48396 | 123 ft | 148 kts | 85° |
| 2026-05-06 08:49 | 51.47758 | -0.46840 | 98 ft | 122 kts | 89° |
| 2026-05-06 08:50 | 51.47760 | -0.45743 | 93 ft | 70 kts | 90° |
| 2026-05-06 08:50 | 51.47763 | -0.45138 | 94 ft | 45 kts | 89° |
| 2026-05-06 08:50 | 51.47730 | -0.44878 | 97 ft | 15 kts | 130° |
| 2026-05-06 08:50 | 51.47686 | -0.44822 | 98 ft | 1 kts | 148° |
| 2026-05-06 08:51 | 51.47663 | -0.44800 | 98 ft | 6 kts | 148° |
| 2026-05-06 08:51 | 51.47615 | -0.44799 | 96 ft | 8 kts | 216° |
| 2026-05-06 08:51 | 51.47600 | -0.44888 | 94 ft | 10 kts | 268° |
| 2026-05-06 08:51 | 51.47598 | -0.45013 | 92 ft | 13 kts | 269° |
| 2026-05-06 08:52 | 51.47597 | -0.45166 | 92 ft | 15 kts | 269° |
| 2026-05-06 08:52 | 51.47596 | -0.45346 | 95 ft | 17 kts | 269° |
| 2026-05-06 08:52 | 51.47595 | -0.45553 | 95 ft | 20 kts | 269° |
| 2026-05-06 08:52 | 51.47594 | -0.45783 | 95 ft | 22 kts | 270° |
| 2026-05-06 08:53 | 51.47593 | -0.46020 | 96 ft | 23 kts | 269° |
| 2026-05-06 08:53 | 51.47592 | -0.46256 | 95 ft | 15 kts | 270° |
| 2026-05-06 08:53 | 51.47592 | -0.46435 | 92 ft | 16 kts | 269° |
| 2026-05-06 08:53 | 51.47591 | -0.46630 | 92 ft | 19 kts | 269° |
| 2026-05-06 08:54 | 51.47590 | -0.46839 | 95 ft | 21 kts | 269° |
| 2026-05-06 08:54 | 51.47586 | -0.47054 | 95 ft | 12 kts | 268° |
| 2026-05-06 08:54 | 51.47582 | -0.47185 | 96 ft | 14 kts | 268° |
| 2026-05-06 08:54 | 51.47581 | -0.47363 | 95 ft | 17 kts | 269° |
| 2026-05-06 08:55 | 51.47580 | -0.47546 | 96 ft | 19 kts | 269° |
| 2026-05-06 08:55 | 51.47579 | -0.47768 | 96 ft | 21 kts | 270° |
| 2026-05-06 08:55 | 51.47579 | -0.48008 | 96 ft | 22 kts | 270° |
| 2026-05-06 08:55 | 51.47578 | -0.48223 | 96 ft | 14 kts | 269° |
| 2026-05-06 08:56 | 51.47573 | -0.48329 | 94 ft | 8 kts | 251° |
| 2026-05-06 08:56 | 51.47524 | -0.48361 | 93 ft | 9 kts | 182° |
| 2026-05-06 08:56 | 51.47449 | -0.48358 | 95 ft | 12 kts | 179° |
| 2026-05-06 08:56 | 51.47353 | -0.48356 | 95 ft | 15 kts | 180° |
| 2026-05-06 08:57 | 51.47240 | -0.48358 | 96 ft | 18 kts | 180° |
| 2026-05-06 08:57 | 51.47117 | -0.48357 | 95 ft | 17 kts | 179° |
| 2026-05-06 08:57 | 51.47059 | -0.48348 | 95 ft | 6 kts | 151° |
| 2026-05-06 08:57 | 51.47049 | -0.48284 | 94 ft | 7 kts | 93° |
| 2026-05-06 08:58 | 51.47049 | -0.48257 | 95 ft | 2 kts | 90° |
| 2026-05-06 08:58 | 51.47049 | -0.48238 | 95 ft | 0 kts | 90° |